createdAt,value
2023-02-06T00:01:58.560Z,-5.34
2023-02-06T00:04:46.859Z,-5.32
2023-02-06T00:07:48.955Z,-5.32
2023-02-06T00:10:34.936Z,-5.29
2023-02-06T00:14:14.150Z,-5.29
2023-02-06T00:18:00.504Z,-5.37
2023-02-06T00:21:13.480Z,-5.40
2023-02-06T00:27:29.948Z,-5.28
2023-02-06T00:30:12.263Z,-5.15
2023-02-06T00:32:52.767Z,-5.15
2023-02-06T00:35:55.781Z,-5.17
2023-02-06T00:38:46.264Z,-5.13
2023-02-06T00:41:32.333Z,-5.08
2023-02-06T00:44:39.697Z,-5.01
2023-02-06T00:50:33.126Z,-4.87
2023-02-06T00:53:21.692Z,-4.92
2023-02-06T00:56:42.668Z,-4.99
2023-02-06T01:02:50.219Z,-5.08
2023-02-06T01:05:41.989Z,-5.02
2023-02-06T01:08:38.226Z,-5.03
2023-02-06T01:11:27.313Z,-5.07
2023-02-06T01:14:33.210Z,-5.13
2023-02-06T01:17:24.879Z,-5.17
2023-02-06T01:20:33.787Z,-5.16
2023-02-06T01:27:13.729Z,-5.13
2023-02-06T01:30:12.883Z,-5.12
2023-02-06T01:33:17.837Z,-5.10
2023-02-06T01:36:13.833Z,-5.06
2023-02-06T01:39:10.958Z,-5.04
2023-02-06T01:42:27.490Z,-5.03
2023-02-06T01:46:06.819Z,-5.01
2023-02-06T01:49:16.565Z,-4.96
2023-02-06T01:52:46.019Z,-4.85
2023-02-06T01:55:43.019Z,-4.77
2023-02-06T01:59:21.813Z,-4.74
2023-02-06T02:02:11.680Z,-4.73
2023-02-06T02:04:50.269Z,-4.71
2023-02-06T02:07:55.285Z,-4.71
2023-02-06T02:11:24.013Z,-4.75
2023-02-06T02:14:08.570Z,-4.79
2023-02-06T02:18:24.573Z,-4.77
2023-02-06T02:21:34.777Z,-4.77
2023-02-06T02:33:19.659Z,-4.81
2023-02-06T02:36:25.327Z,-4.87
2023-02-06T02:39:15.327Z,-4.93
2023-02-06T02:42:56.548Z,-4.98
2023-02-06T02:46:27.272Z,-5.04
2023-02-06T02:49:42.289Z,-5.09
2023-02-06T02:52:41.847Z,-5.14
2023-02-06T02:55:36.348Z,-5.13
2023-02-06T02:58:23.011Z,-5.10
2023-02-06T03:01:41.899Z,-5.08
2023-02-06T03:05:03.283Z,-5.08
2023-02-06T03:07:48.287Z,-5.11
2023-02-06T03:11:32.582Z,-5.12
2023-02-06T03:15:01.673Z,-5.13
2023-02-06T03:18:30.848Z,-5.08
2023-02-06T03:21:31.970Z,-4.98
2023-02-06T03:24:48.894Z,-4.89
2023-02-06T03:28:16.483Z,-4.81
2023-02-06T03:31:26.577Z,-4.75
2023-02-06T03:35:26.448Z,-4.73
2023-02-06T03:38:37.991Z,-4.72
2023-02-06T03:41:37.243Z,-4.71
2023-02-06T03:44:50.787Z,-4.71
2023-02-06T03:51:53.286Z,-4.68
2023-02-06T03:55:08.134Z,-4.67
2023-02-06T03:58:01.663Z,-4.69
2023-02-06T04:01:43.343Z,-4.69
2023-02-06T04:04:50.451Z,-4.68
2023-02-06T04:07:57.124Z,-4.68
2023-02-06T04:11:33.732Z,-4.68
2023-02-06T04:14:59.431Z,-4.67
2023-02-06T04:18:19.463Z,-4.67
2023-02-06T04:21:26.527Z,-4.66
2023-02-06T04:24:22.422Z,-4.67
2023-02-06T04:27:20.501Z,-4.65
2023-02-06T04:30:41.387Z,-4.65
2023-02-06T04:34:11.879Z,-4.65
2023-02-06T04:37:30.062Z,-4.65
2023-02-06T04:40:18.920Z,-4.65
2023-02-06T04:43:33.361Z,-4.65
2023-02-06T04:46:58.507Z,-4.66
2023-02-06T04:49:54.223Z,-4.65
2023-02-06T04:52:48.000Z,-4.64
2023-02-06T04:55:50.393Z,-4.65
2023-02-06T04:59:32.851Z,-4.67
2023-02-06T05:06:37.823Z,-4.62
2023-02-06T05:09:34.588Z,-4.58
2023-02-06T05:13:15.662Z,-4.55
2023-02-06T05:20:42.217Z,-4.57
2023-02-06T05:33:48.293Z,-4.60
2023-02-06T05:37:08.883Z,-4.64
2023-02-06T05:40:06.128Z,-4.65
2023-02-06T05:43:11.231Z,-4.65
2023-02-06T05:57:44.166Z,-4.69
2023-02-06T06:01:05.556Z,-4.69
2023-02-06T06:04:27.325Z,-4.68
2023-02-06T06:11:06.318Z,-4.72
2023-02-06T06:15:28.680Z,-4.75
2023-02-06T06:18:20.928Z,-4.77
2023-02-06T06:21:21.280Z,-4.81
2023-02-06T06:24:03.356Z,-4.83
2023-02-06T06:32:05.950Z,-4.87
2023-02-06T06:40:10.600Z,-4.92
2023-02-06T06:41:57.600Z,-4.93
2023-02-06T06:45:46.789Z,-4.94
2023-02-06T06:49:38.513Z,-4.91
2023-02-06T06:53:24.020Z,-4.90
2023-02-06T06:56:30.628Z,-4.89
2023-02-06T06:59:35.499Z,-4.85
2023-02-06T07:02:09.756Z,-4.83
2023-02-06T07:04:40.498Z,-4.81
2023-02-06T07:07:13.807Z,-4.78
2023-02-06T07:09:43.737Z,-4.76
2023-02-06T07:12:12.859Z,-4.73
2023-02-06T07:14:44.189Z,-4.71
2023-02-06T07:17:19.349Z,-4.69
2023-02-06T07:19:49.909Z,-4.69
2023-02-06T07:22:24.010Z,-4.67
2023-02-06T07:24:58.538Z,-4.66
2023-02-06T07:27:27.218Z,-4.67
2023-02-06T07:29:58.120Z,-4.68
2023-02-06T07:32:44.657Z,-4.70
2023-02-06T07:35:21.383Z,-4.70
2023-02-06T07:38:00.026Z,-4.69
2023-02-06T07:41:26.195Z,-4.68
2023-02-06T07:44:46.577Z,-4.68
2023-02-06T07:47:41.435Z,-4.65
2023-02-06T07:50:12.675Z,-4.61
2023-02-06T07:52:49.217Z,-4.57
2023-02-06T07:55:48.598Z,-4.51
2023-02-06T07:58:28.854Z,-4.49
2023-02-06T08:01:05.052Z,-4.46
2023-02-06T08:04:45.188Z,-4.45
2023-02-06T08:11:20.578Z,-4.29
2023-02-06T08:14:06.099Z,-4.24
2023-02-06T08:16:47.964Z,-4.25
2023-02-06T08:20:02.339Z,-4.27
2023-02-06T08:22:40.127Z,-4.21
2023-02-06T08:26:05.962Z,-4.20
2023-02-06T08:28:49.694Z,-4.18
2023-02-06T08:32:12.791Z,-4.17
2023-02-06T08:35:26.862Z,-4.18
2023-02-06T08:38:06.680Z,-4.17
2023-02-06T08:41:07.139Z,-4.16
2023-02-06T08:44:16.532Z,-4.10
2023-02-06T08:46:56.180Z,-4.02
2023-02-06T08:49:38.760Z,-3.98
2023-02-06T08:53:03.021Z,-3.92
2023-02-06T08:56:26.902Z,-3.80
2023-02-06T08:59:38.535Z,-3.86
2023-02-06T09:02:47.468Z,-3.86
2023-02-06T09:05:23.581Z,-3.87
2023-02-06T09:08:05.715Z,-3.84
2023-02-06T09:11:46.748Z,-3.76
2023-02-06T09:15:05.500Z,-3.59
2023-02-06T09:18:09.339Z,-3.48
2023-02-06T09:21:12.939Z,-3.40
2023-02-06T09:24:17.570Z,-3.38
2023-02-06T09:27:18.311Z,-3.34
2023-02-06T09:30:19.918Z,-3.33
2023-02-06T09:33:13.226Z,-3.30
2023-02-06T09:35:46.601Z,-3.29
2023-02-06T09:38:22.111Z,-3.28
2023-02-06T09:40:52.238Z,-3.26
2023-02-06T09:43:28.013Z,-3.19
2023-02-06T09:50:26.443Z,-3.02
2023-02-06T09:53:40.190Z,-3.02
2023-02-06T09:56:35.263Z,-3.10
2023-02-06T10:04:26.734Z,-3.11
2023-02-06T10:08:24.030Z,-3.12
2023-02-06T10:10:56.366Z,-3.10
2023-02-06T10:14:19.783Z,-3.03
2023-02-06T10:17:07.078Z,-2.96
2023-02-06T10:19:44.716Z,-2.87
2023-02-06T10:22:28.518Z,-2.89
2023-02-06T10:25:16.105Z,-2.83
2023-02-06T10:27:58.737Z,-2.71
2023-02-06T10:30:56.717Z,-2.66
2023-02-06T10:33:49.983Z,-2.66
2023-02-06T10:36:51.218Z,-2.51
2023-02-06T10:44:03.824Z,-2.48
2023-02-06T10:47:03.684Z,-2.29
2023-02-06T10:50:04.333Z,-2.05
2023-02-06T10:52:56.252Z,-1.87
2023-02-06T10:56:47.982Z,-1.70
2023-02-06T11:03:20.581Z,-1.34
2023-02-06T11:06:13.683Z,-1.28
2023-02-06T11:12:07.207Z,-1.22
2023-02-06T11:15:22.541Z,-1.20
2023-02-06T11:17:57.498Z,-1.12
2023-02-06T11:20:54.874Z,-1.11
2023-02-06T11:23:51.113Z,-1.09
2023-02-06T11:27:35.923Z,-1.12
2023-02-06T11:30:30.522Z,-1.03
2023-02-06T11:33:22.959Z,-0.91
2023-02-06T11:36:25.312Z,-0.81
2023-02-06T11:39:13.451Z,-0.73
2023-02-06T11:42:37.187Z,-0.72
2023-02-06T11:45:37.415Z,-0.82
2023-02-06T11:49:40.050Z,-1.02
2023-02-06T11:52:53.234Z,-1.00
2023-02-06T12:00:41.064Z,-0.88
2023-02-06T12:03:53.400Z,-0.99
2023-02-06T12:07:19.931Z,-1.04
2023-02-06T12:11:06.505Z,-1.09
2023-02-06T12:22:11.454Z,-0.97
2023-02-06T12:25:06.453Z,-1.01
2023-02-06T12:27:44.743Z,-1.00
2023-02-06T12:31:01.388Z,-0.97
2023-02-06T12:34:35.389Z,-0.90
2023-02-06T12:38:18.800Z,-0.87
2023-02-06T12:42:09.555Z,-0.88
2023-02-06T12:45:36.411Z,-0.93
2023-02-06T12:49:27.775Z,-1.05
2023-02-06T12:52:28.460Z,-1.13
2023-02-06T12:55:36.640Z,-1.03
2023-02-06T12:59:04.946Z,-0.92
2023-02-06T13:03:27.495Z,-0.82
2023-02-06T13:06:57.268Z,-0.93
2023-02-06T13:09:56.492Z,-0.99
2023-02-06T13:12:40.828Z,-0.92
2023-02-06T13:20:16.732Z,-0.86
2023-02-06T13:23:20.019Z,-0.92
2023-02-06T13:30:49.724Z,-0.95
2023-02-06T13:34:19.527Z,-0.95
2023-02-06T13:37:36.375Z,-0.91
2023-02-06T13:40:44.519Z,-0.85
2023-02-06T13:44:02.381Z,-0.87
2023-02-06T13:51:21.009Z,-0.83
2023-02-06T13:54:30.977Z,-0.83
2023-02-06T13:57:57.950Z,-0.82
2023-02-06T14:00:41.786Z,-0.75
2023-02-06T14:03:47.464Z,-0.57
2023-02-06T14:07:07.262Z,0.07
2023-02-06T14:09:47.819Z,0.75
2023-02-06T14:12:47.650Z,1.15
2023-02-06T14:15:50.942Z,1.65
2023-02-06T14:19:03.743Z,1.79
2023-02-06T14:21:56.054Z,1.32
2023-02-06T14:26:01.154Z,1.47
2023-02-06T14:29:05.452Z,2.00
2023-02-06T14:31:49.638Z,2.11
2023-02-06T14:34:58.144Z,2.46
2023-02-06T14:38:22.696Z,2.77
2023-02-06T14:41:31.441Z,3.14
2023-02-06T14:44:29.620Z,2.86
2023-02-06T14:47:36.805Z,2.79
2023-02-06T14:50:55.506Z,2.81
2023-02-06T14:54:44.833Z,2.17
2023-02-06T14:58:03.969Z,1.65
2023-02-06T15:01:03.085Z,1.25
2023-02-06T15:04:22.450Z,0.80
2023-02-06T15:07:34.609Z,0.93
2023-02-06T15:10:32.793Z,0.76
2023-02-06T15:14:20.506Z,0.36
2023-02-06T15:17:22.784Z,0.03
2023-02-06T15:20:17.641Z,-0.24
2023-02-06T15:23:55.292Z,-0.59
2023-02-06T15:27:21.199Z,-0.88
2023-02-06T15:30:07.434Z,-1.10
2023-02-06T15:32:49.124Z,-1.27
2023-02-06T15:35:42.803Z,-1.42
2023-02-06T15:38:46.142Z,-1.53
2023-02-06T15:41:51.086Z,-1.66
2023-02-06T15:45:08.224Z,-1.80
2023-02-06T15:51:17.303Z,-1.93
2023-02-06T15:54:17.877Z,-1.97
2023-02-06T15:57:55.520Z,-2.04
2023-02-06T16:00:43.226Z,-2.12
2023-02-06T16:04:12.050Z,-2.20
2023-02-06T16:07:44.089Z,-2.32
2023-02-06T16:10:46.633Z,-2.47
2023-02-06T16:13:23.272Z,-2.55
2023-02-06T16:16:40.622Z,-2.58
2023-02-06T16:19:48.752Z,-2.63
2023-02-06T16:22:49.721Z,-2.69
2023-02-06T16:26:45.846Z,-2.73
2023-02-06T16:29:41.609Z,-2.75
2023-02-06T16:32:36.506Z,-2.77
2023-02-06T16:35:27.020Z,-2.79
2023-02-06T16:41:22.193Z,-2.85
2023-02-06T16:43:54.876Z,-2.92
2023-02-06T16:46:31.902Z,-2.96
2023-02-06T16:49:14.360Z,-2.97
2023-02-06T16:51:55.567Z,-2.98
2023-02-06T16:54:33.644Z,-2.97
2023-02-06T16:57:21.475Z,-2.97
2023-02-06T17:00:25.851Z,-2.96
2023-02-06T17:03:01.961Z,-2.96
2023-02-06T17:05:35.839Z,-2.99
2023-02-06T17:08:18.093Z,-3.06
2023-02-06T17:11:07.065Z,-3.07
2023-02-06T17:13:50.334Z,-3.04
2023-02-06T17:16:21.437Z,-3.00
2023-02-06T17:18:52.944Z,-2.99
2023-02-06T17:21:24.128Z,-2.97
2023-02-06T17:24:02.480Z,-2.97
2023-02-06T17:26:34.182Z,-3.00
2023-02-06T17:29:03.380Z,-3.05
2023-02-06T17:31:41.949Z,-3.09
2023-02-06T17:34:10.718Z,-3.14
2023-02-06T17:36:41.197Z,-3.19
2023-02-06T17:39:15.567Z,-3.25
2023-02-06T17:41:50.142Z,-3.30
2023-02-06T17:44:24.910Z,-3.33
2023-02-06T17:46:55.287Z,-3.34
2023-02-06T17:49:26.671Z,-3.34
2023-02-06T17:52:00.091Z,-3.32
2023-02-06T17:54:34.261Z,-3.33
2023-02-06T17:57:10.169Z,-3.38
2023-02-06T17:59:39.393Z,-3.49
2023-02-06T18:02:12.937Z,-3.58
2023-02-06T18:04:41.845Z,-3.68
2023-02-06T18:07:10.968Z,-3.75
2023-02-06T18:09:41.927Z,-3.81
2023-02-06T18:12:11.256Z,-3.85
2023-02-06T18:14:42.901Z,-3.85
2023-02-06T18:17:13.124Z,-3.82
2023-02-06T18:20:02.828Z,-3.78
2023-02-06T18:22:58.713Z,-3.71
2023-02-06T18:25:59.715Z,-3.67
2023-02-06T18:28:38.986Z,-3.63
2023-02-06T18:31:27.796Z,-3.63
2023-02-06T18:34:14.769Z,-3.69
2023-02-06T18:37:09.819Z,-3.78
2023-02-06T18:39:50.118Z,-3.89
2023-02-06T18:42:57.248Z,-3.95
2023-02-06T18:45:55.013Z,-4.02
2023-02-06T18:48:36.884Z,-4.13
2023-02-06T18:51:16.148Z,-4.25
2023-02-06T18:53:50.855Z,-4.35
2023-02-06T18:56:26.751Z,-4.42
2023-02-06T18:59:18.228Z,-4.49
2023-02-06T19:02:14.546Z,-4.55
2023-02-06T19:05:42.941Z,-4.55
2023-02-06T19:08:51.505Z,-4.44
2023-02-06T19:11:34.214Z,-4.33
2023-02-06T19:17:19.943Z,-4.15
2023-02-06T19:20:08.679Z,-4.09
2023-02-06T19:23:05.022Z,-4.07
2023-02-06T19:25:41.402Z,-4.10
2023-02-06T19:28:20.497Z,-4.13
2023-02-06T19:31:36.403Z,-4.20
2023-02-06T19:34:17.807Z,-4.37
2023-02-06T19:36:48.806Z,-4.47
2023-02-06T19:39:22.482Z,-4.55
2023-02-06T19:42:19.056Z,-4.64
2023-02-06T19:44:53.859Z,-4.69
2023-02-06T19:47:29.040Z,-4.71
2023-02-06T19:50:01.063Z,-4.73
2023-02-06T19:52:40.052Z,-4.70
2023-02-06T19:55:14.485Z,-4.65
2023-02-06T19:58:09.724Z,-4.62
2023-02-06T20:04:01.423Z,-4.61
2023-02-06T20:06:35.229Z,-4.62
2023-02-06T20:09:27.284Z,-4.67
2023-02-06T20:11:59.448Z,-4.72
2023-02-06T20:14:28.144Z,-4.74
2023-02-06T20:17:02.472Z,-4.77
2023-02-06T20:19:31.642Z,-4.80
2023-02-06T20:22:05.902Z,-4.86
2023-02-06T20:24:35.042Z,-4.91
2023-02-06T20:27:07.497Z,-4.98
2023-02-06T20:29:38.786Z,-5.05
2023-02-06T20:32:08.365Z,-5.09
2023-02-06T20:34:36.904Z,-5.14
2023-02-06T20:37:05.894Z,-5.22
2023-02-06T20:39:39.346Z,-5.28
2023-02-06T20:42:10.900Z,-5.31
2023-02-06T20:44:41.841Z,-5.34
2023-02-06T20:47:13.520Z,-5.37
2023-02-06T20:49:54.050Z,-5.38
2023-02-06T20:52:25.223Z,-5.39
2023-02-06T20:54:54.176Z,-5.41
2023-02-06T20:57:23.303Z,-5.39
2023-02-06T20:59:51.915Z,-5.31
2023-02-06T21:02:20.576Z,-5.36
2023-02-06T21:04:52.267Z,-5.46
2023-02-06T21:07:20.913Z,-5.58
2023-02-06T21:12:33.285Z,-5.78
2023-02-06T21:15:01.937Z,-5.81
2023-02-06T21:17:30.155Z,-5.85
2023-02-06T21:19:58.728Z,-5.89
2023-02-06T21:22:27.091Z,-5.92
2023-02-06T21:24:55.510Z,-5.94
2023-02-06T21:27:24.344Z,-5.90
2023-02-06T21:29:53.227Z,-5.82
2023-02-06T21:32:22.047Z,-5.74
2023-02-06T21:34:50.398Z,-5.70
2023-02-06T21:37:18.848Z,-5.60
2023-02-06T21:39:47.178Z,-5.44
2023-02-06T21:42:15.620Z,-5.30
2023-02-06T21:44:43.947Z,-5.12
2023-02-06T21:47:15.216Z,-5.05
2023-02-06T21:49:43.554Z,-5.10
2023-02-06T21:52:11.888Z,-5.21
2023-02-06T21:54:40.719Z,-5.32
2023-02-06T21:57:08.971Z,-5.46
2023-02-06T21:59:38.170Z,-5.60
2023-02-06T22:02:07.130Z,-5.74
2023-02-06T22:04:36.798Z,-5.88
2023-02-06T22:07:08.234Z,-6.00
2023-02-06T22:09:36.847Z,-6.12
2023-02-06T22:12:07.518Z,-6.21
2023-02-06T22:14:36.101Z,-6.27
2023-02-06T22:17:07.332Z,-6.34
2023-02-06T22:19:37.911Z,-6.41
2023-02-06T22:22:06.227Z,-6.48
2023-02-06T22:24:34.513Z,-6.53
2023-02-06T22:27:03.272Z,-6.54
2023-02-06T22:29:35.456Z,-6.52
2023-02-06T22:32:05.212Z,-6.53
2023-02-06T22:34:33.534Z,-6.54
2023-02-06T22:37:04.133Z,-6.54
2023-02-06T22:39:32.357Z,-6.56
2023-02-06T22:42:01.067Z,-6.58
2023-02-06T22:44:31.435Z,-6.62
2023-02-06T22:47:00.586Z,-6.65
2023-02-06T22:49:29.255Z,-6.68
2023-02-06T22:52:00.516Z,-6.70
2023-02-06T22:54:28.712Z,-6.70
2023-02-06T22:56:57.221Z,-6.70
2023-02-06T22:59:28.188Z,-6.70
2023-02-06T23:01:58.950Z,-6.68
2023-02-06T23:04:38.800Z,-6.67
2023-02-06T23:07:13.680Z,-6.66
2023-02-06T23:09:57.717Z,-6.66
2023-02-06T23:12:56.875Z,-6.66
2023-02-06T23:15:45.562Z,-6.66
2023-02-06T23:18:20.324Z,-6.66
2023-02-06T23:20:58.473Z,-6.67
2023-02-06T23:23:30.297Z,-6.69
2023-02-06T23:26:04.468Z,-6.67
2023-02-06T23:28:42.151Z,-6.64
2023-02-06T23:31:14.736Z,-6.63
2023-02-06T23:33:48.595Z,-6.61
2023-02-06T23:36:22.882Z,-6.59
2023-02-06T23:38:57.118Z,-6.58
2023-02-06T23:44:33.217Z,-6.34
2023-02-06T23:47:27.965Z,-6.02
2023-02-06T23:50:11.861Z,-5.71
2023-02-06T23:53:14.830Z,-5.53
2023-02-06T23:56:35.964Z,-5.56
2023-02-06T23:59:27.484Z,-5.82
